Chance, Virginia
Current Conditions -  °F | °C
As of 10:35 PM on Saturday 22 Nov 2014 (Local Time) from KXSA Reporting Station
Clear Clear  
Wind Chill: 35°   Ceiling: Unl
Heat Index: 38°   Visibility: 10mi
Dew Point: 12°   Wind: 5mph
Humidity: 35%   Direction: 170°S
Pressure: 30.33"   Gusts: NA
Location:  38.03°N, 76.9626°W
Report Text: KXSA 230335Z AUTO 17004KT 10SM CLR 04/M11 A3033 RMK AO2 T00351109
Loading
Personal Weather Stations






























Interactive Weather Map New forecast layout! Learn more

10-Day Weather Forecast

Advertisements
Track Severe Weather on mobile